createdAt,value
2022-12-04T00:02:03.381Z,24.27
2022-12-04T00:04:34.070Z,24.60
2022-12-04T00:07:04.826Z,25.93
2022-12-04T00:09:35.359Z,24.90
2022-12-04T00:12:06.246Z,22.37
2022-12-04T00:14:54.424Z,25.97
2022-12-04T00:17:09.087Z,22.07
2022-12-04T00:19:39.918Z,27.23
2022-12-04T00:22:10.517Z,24.73
2022-12-04T00:24:41.142Z,24.63
2022-12-04T00:27:11.733Z,26.47
2022-12-04T00:29:42.451Z,25.17
2022-12-04T00:32:13.050Z,25.07
2022-12-04T00:34:43.782Z,26.07
2022-12-04T00:37:14.295Z,27.00
2022-12-04T00:39:44.875Z,22.07
2022-12-04T00:42:15.487Z,28.53
2022-12-04T00:44:47.134Z,27.60
2022-12-04T00:47:17.776Z,24.00
2022-12-04T00:49:48.421Z,27.23
2022-12-04T00:52:18.998Z,26.10
2022-12-04T00:54:49.630Z,26.07
2022-12-04T00:57:20.133Z,25.43
2022-12-04T00:59:51.020Z,24.00
2022-12-04T01:02:21.610Z,27.37
2022-12-04T01:04:53.174Z,26.17
2022-12-04T01:07:23.683Z,31.40
2022-12-04T01:09:54.496Z,28.90
2022-12-04T01:12:25.368Z,25.60
2022-12-04T01:14:55.975Z,27.43
2022-12-04T01:17:26.565Z,28.13
2022-12-04T01:19:57.500Z,28.10
2022-12-04T01:22:28.334Z,31.23
2022-12-04T01:24:58.989Z,30.37
2022-12-04T01:27:29.562Z,31.63
2022-12-04T01:30:00.444Z,31.23
2022-12-04T01:32:31.112Z,29.83
2022-12-04T01:35:02.025Z,31.00
2022-12-04T01:37:34.047Z,30.17
2022-12-04T01:40:05.196Z,31.23
2022-12-04T01:42:35.783Z,32.27
2022-12-04T01:48:24.397Z,30.47
2022-12-04T01:50:59.021Z,27.53
2022-12-04T01:53:30.677Z,29.60
2022-12-04T01:56:02.029Z,30.03
2022-12-04T01:58:35.617Z,28.60
2022-12-04T02:01:09.413Z,31.13
2022-12-04T02:03:40.726Z,31.07
2022-12-04T02:06:11.351Z,30.10
2022-12-04T02:08:42.557Z,25.77
2022-12-04T02:11:19.783Z,30.10
2022-12-04T02:13:55.961Z,28.90
2022-12-04T02:16:30.511Z,28.23
2022-12-04T02:19:04.988Z,23.43
2022-12-04T02:21:38.247Z,24.03
2022-12-04T02:24:33.701Z,25.90
2022-12-04T02:27:08.428Z,26.77
2022-12-04T02:29:43.083Z,23.40
2022-12-04T02:32:20.184Z,30.23
2022-12-04T02:34:54.169Z,27.47
2022-12-04T02:37:28.212Z,25.13
2022-12-04T02:40:02.063Z,28.23
2022-12-04T02:42:36.211Z,24.23
2022-12-04T02:45:10.639Z,26.33
2022-12-04T02:47:43.529Z,24.57
2022-12-04T02:50:16.381Z,21.60
2022-12-04T02:52:49.888Z,26.47
2022-12-04T02:55:23.570Z,27.33
2022-12-04T02:57:57.080Z,26.13
2022-12-04T03:00:27.951Z,24.23
2022-12-04T03:03:18.861Z,26.20
2022-12-04T03:05:53.228Z,24.60
2022-12-04T03:08:26.761Z,29.97
2022-12-04T03:11:00.475Z,24.70
2022-12-04T03:13:36.340Z,29.20
2022-12-04T03:16:11.420Z,28.73
2022-12-04T03:18:45.122Z,26.40
2022-12-04T03:21:18.626Z,25.47
2022-12-04T03:23:53.313Z,33.73
2022-12-04T03:26:27.792Z,30.77
2022-12-04T03:29:01.201Z,32.30
2022-12-04T03:31:36.115Z,25.47
2022-12-04T03:34:09.299Z,29.37
2022-12-04T03:36:42.768Z,27.83
2022-12-04T03:39:17.066Z,25.43
2022-12-04T03:41:56.041Z,27.70
2022-12-04T03:44:29.792Z,28.27
2022-12-04T03:47:04.597Z,28.87
2022-12-04T03:49:41.070Z,29.60
2022-12-04T03:52:14.839Z,30.40
2022-12-04T03:54:49.258Z,30.83
2022-12-04T03:57:22.979Z,29.50
2022-12-04T03:59:56.595Z,30.73
2022-12-04T04:02:30.456Z,30.10
2022-12-04T04:05:02.876Z,33.87
2022-12-04T04:07:36.810Z,30.53
2022-12-04T04:10:11.521Z,29.93
2022-12-04T04:12:45.495Z,30.87
2022-12-04T04:15:36.371Z,37.77
2022-12-04T04:18:25.768Z,37.40
2022-12-04T04:21:16.710Z,34.63
2022-12-04T04:24:07.818Z,39.40
2022-12-04T04:26:42.470Z,30.73
2022-12-04T04:29:14.074Z,31.97
2022-12-04T04:31:47.569Z,33.03
2022-12-04T04:34:38.457Z,34.97
2022-12-04T04:37:12.342Z,37.77
2022-12-04T04:39:45.936Z,31.60
2022-12-04T04:42:19.483Z,36.00
2022-12-04T04:44:53.672Z,36.67
2022-12-04T04:47:27.723Z,34.10
2022-12-04T04:50:00.626Z,33.53
2022-12-04T04:52:32.366Z,36.00
2022-12-04T04:55:04.352Z,43.77
2022-12-04T04:57:37.208Z,32.90
2022-12-04T05:00:12.182Z,34.00
2022-12-04T05:02:43.447Z,30.17
2022-12-04T05:05:14.917Z,31.63
2022-12-04T05:07:46.060Z,31.90
2022-12-04T05:10:16.716Z,31.63
2022-12-04T05:12:47.273Z,31.53
2022-12-04T05:15:19.100Z,32.73
2022-12-04T05:17:49.630Z,32.17
2022-12-04T05:20:20.481Z,31.93
2022-12-04T05:22:51.143Z,33.20
2022-12-04T05:25:21.810Z,29.53
2022-12-04T05:27:52.400Z,30.47
2022-12-04T05:30:23.120Z,30.30
2022-12-04T05:32:53.700Z,37.07
2022-12-04T05:35:24.352Z,29.70
2022-12-04T05:37:54.932Z,32.83
2022-12-04T05:40:25.606Z,32.70
2022-12-04T05:42:56.120Z,31.47
2022-12-04T05:45:26.781Z,31.00
2022-12-04T05:47:57.373Z,28.20
2022-12-04T05:50:27.994Z,30.00
2022-12-04T05:52:58.488Z,30.00
2022-12-04T05:55:29.010Z,27.30
2022-12-04T05:58:00.227Z,27.77
2022-12-04T06:00:49.413Z,30.33
2022-12-04T06:03:20.101Z,33.80
2022-12-04T06:05:50.818Z,29.17
2022-12-04T06:08:21.547Z,31.20
2022-12-04T06:10:52.144Z,27.13
2022-12-04T06:13:22.703Z,29.73
2022-12-04T06:15:53.600Z,30.63
2022-12-04T06:18:24.153Z,32.37
2022-12-04T06:20:56.173Z,33.00
2022-12-04T06:23:26.816Z,30.57
2022-12-04T06:26:00.799Z,29.07
2022-12-04T06:28:29.985Z,31.37
2022-12-04T06:31:05.155Z,29.43
2022-12-04T06:33:36.329Z,32.40
2022-12-04T06:36:10.544Z,32.30
2022-12-04T06:38:42.359Z,27.97
2022-12-04T06:41:15.089Z,30.33
2022-12-04T06:43:45.980Z,27.87
2022-12-04T06:46:19.030Z,28.90
2022-12-04T06:48:50.485Z,27.90
2022-12-04T06:51:24.280Z,29.80
2022-12-04T06:53:55.739Z,27.87
2022-12-04T06:56:28.348Z,27.53
2022-12-04T06:59:01.705Z,25.93
2022-12-04T07:01:35.035Z,26.43
2022-12-04T07:04:06.895Z,28.57
2022-12-04T07:06:39.071Z,28.97
2022-12-04T07:09:12.151Z,32.20
2022-12-04T07:11:43.905Z,32.37
2022-12-04T07:14:15.186Z,31.67
2022-12-04T07:16:45.877Z,31.47
2022-12-04T07:19:17.421Z,33.13
2022-12-04T07:21:47.953Z,31.37
2022-12-04T07:24:19.677Z,35.87
2022-12-04T07:26:50.301Z,34.43
2022-12-04T07:29:20.935Z,32.37
2022-12-04T07:31:51.747Z,33.23
2022-12-04T07:34:22.514Z,34.03
2022-12-04T07:36:53.122Z,27.47
2022-12-04T07:39:23.805Z,33.30
2022-12-04T07:41:54.358Z,31.80
2022-12-04T07:44:25.025Z,36.87
2022-12-04T07:46:55.661Z,34.00
2022-12-04T07:49:26.251Z,34.13
2022-12-04T07:51:56.943Z,35.53
2022-12-04T07:54:27.646Z,32.43
2022-12-04T07:56:58.676Z,35.67
2022-12-04T07:59:29.290Z,37.70
2022-12-04T08:02:00.137Z,37.63
2022-12-04T08:04:30.878Z,36.53
2022-12-04T08:07:01.568Z,35.13
2022-12-04T08:09:32.780Z,36.50
2022-12-04T08:12:03.771Z,39.90
2022-12-04T08:14:34.575Z,38.90
2022-12-04T08:17:05.312Z,37.23
2022-12-04T08:19:35.957Z,36.33
2022-12-04T08:22:06.668Z,36.70
2022-12-04T08:24:37.745Z,32.33
2022-12-04T08:27:08.383Z,36.70
2022-12-04T08:29:39.760Z,39.80
2022-12-04T08:32:10.575Z,37.07
2022-12-04T08:34:41.299Z,36.13
2022-12-04T08:37:12.104Z,36.47
2022-12-04T08:39:42.735Z,36.77
2022-12-04T08:42:13.392Z,34.57
2022-12-04T08:44:44.088Z,36.70
2022-12-04T08:47:15.191Z,36.33
2022-12-04T08:49:46.487Z,34.07
2022-12-04T08:52:17.143Z,34.37
2022-12-04T08:54:48.163Z,33.63
2022-12-04T08:57:18.853Z,34.93
2022-12-04T08:59:49.504Z,31.37
2022-12-04T09:02:20.207Z,34.93
2022-12-04T09:04:50.857Z,33.47
2022-12-04T09:07:21.600Z,36.57
2022-12-04T09:09:52.285Z,31.80
2022-12-04T09:12:22.848Z,36.17
2022-12-04T09:14:53.723Z,36.43
2022-12-04T09:17:24.573Z,41.30
2022-12-04T09:20:00.524Z,32.80
2022-12-04T09:22:40.363Z,42.37
2022-12-04T09:24:59.960Z,42.03
2022-12-04T09:27:30.874Z,45.53
2022-12-04T09:30:01.492Z,43.30
2022-12-04T09:32:32.139Z,49.97
2022-12-04T09:35:02.950Z,47.77
2022-12-04T09:37:36.456Z,49.73
2022-12-04T09:40:14.779Z,41.93
2022-12-04T09:45:28.490Z,37.87
2022-12-04T09:48:02.081Z,78.07
2022-12-04T09:53:17.119Z,46.90
2022-12-04T09:55:51.273Z,43.40
2022-12-04T09:58:24.961Z,46.07
2022-12-04T10:00:58.112Z,44.53
2022-12-04T10:03:32.013Z,42.07
2022-12-04T10:06:05.973Z,44.97
2022-12-04T10:08:40.080Z,45.97
2022-12-04T10:11:16.052Z,38.67
2022-12-04T10:14:09.118Z,39.30
2022-12-04T10:16:50.526Z,44.53
2022-12-04T10:19:25.484Z,42.03
2022-12-04T10:22:01.314Z,40.30
2022-12-04T10:24:38.762Z,40.90
2022-12-04T10:27:15.399Z,39.70
2022-12-04T10:32:30.810Z,36.73
2022-12-04T10:35:06.350Z,39.20
2022-12-04T10:37:40.550Z,44.17
2022-12-04T10:40:15.964Z,38.90
2022-12-04T10:42:49.927Z,41.70
2022-12-04T10:45:24.228Z,39.67
2022-12-04T10:47:55.831Z,35.90
2022-12-04T10:50:27.263Z,40.40
2022-12-04T10:52:59.565Z,39.30
2022-12-04T10:55:37.576Z,38.00
2022-12-04T10:58:17.754Z,38.33
2022-12-04T11:01:08.037Z,37.73
2022-12-04T11:03:40.475Z,41.93
2022-12-04T11:06:14.349Z,38.10
2022-12-04T11:08:47.976Z,37.00
2022-12-04T11:11:20.967Z,36.97
2022-12-04T11:13:53.035Z,32.90
2022-12-04T11:16:34.651Z,37.97
2022-12-04T11:19:05.573Z,34.40
2022-12-04T11:21:36.515Z,35.23
2022-12-04T11:24:07.936Z,32.20
2022-12-04T11:26:41.571Z,31.00
2022-12-04T11:29:17.914Z,31.43
2022-12-04T11:31:53.106Z,31.00
2022-12-04T11:34:26.911Z,30.40
2022-12-04T11:36:59.182Z,28.80
2022-12-04T11:39:33.719Z,27.83
2022-12-04T11:42:07.006Z,24.13
2022-12-04T11:44:39.390Z,26.47
2022-12-04T11:47:17.427Z,24.00
2022-12-04T11:52:47.563Z,24.67
2022-12-04T11:55:28.492Z,28.33
2022-12-04T11:57:58.155Z,25.40
2022-12-04T12:00:29.155Z,26.77
2022-12-04T12:03:14.019Z,25.83
2022-12-04T12:06:04.084Z,26.83
2022-12-04T12:08:43.141Z,29.97
2022-12-04T12:11:17.337Z,27.53
2022-12-04T12:13:52.422Z,26.50
2022-12-04T12:16:27.087Z,24.40
2022-12-04T12:19:15.177Z,27.67
2022-12-04T12:21:49.582Z,23.50
2022-12-04T12:24:28.386Z,21.73
2022-12-04T12:27:07.759Z,23.50
2022-12-04T12:29:50.719Z,23.43
2022-12-04T12:32:41.638Z,17.37
2022-12-04T12:35:20.188Z,22.80
2022-12-04T12:37:54.477Z,21.33
2022-12-04T12:40:31.226Z,22.13
2022-12-04T12:43:05.960Z,20.73
2022-12-04T12:45:42.435Z,20.87
2022-12-04T12:48:19.568Z,18.83
2022-12-04T12:51:09.081Z,20.57
2022-12-04T12:53:30.228Z,19.20
2022-12-04T12:56:03.705Z,18.87
2022-12-04T12:58:39.133Z,23.33
2022-12-04T13:01:13.933Z,24.10
2022-12-04T13:03:51.127Z,21.77
2022-12-04T13:06:25.826Z,19.33
2022-12-04T13:09:03.223Z,19.53
2022-12-04T13:11:35.399Z,20.10
2022-12-04T13:14:06.928Z,22.10
2022-12-04T13:16:40.798Z,22.20
2022-12-04T13:19:15.651Z,23.13
2022-12-04T13:21:49.653Z,22.43
2022-12-04T13:24:41.067Z,24.80
2022-12-04T13:27:15.979Z,26.57
2022-12-04T13:29:58.493Z,27.50
2022-12-04T13:32:53.148Z,31.10
2022-12-04T13:35:30.063Z,31.57
2022-12-04T13:38:12.560Z,31.50
2022-12-04T13:40:47.363Z,32.13
2022-12-04T13:43:37.019Z,33.33
2022-12-04T13:46:10.868Z,36.80
2022-12-04T13:48:43.635Z,35.73
2022-12-04T13:51:29.945Z,35.87
2022-12-04T13:54:07.351Z,43.10
2022-12-04T13:56:38.010Z,34.47
2022-12-04T13:59:21.888Z,38.57
2022-12-04T14:01:55.051Z,38.40
2022-12-04T14:04:31.387Z,37.03
2022-12-04T14:07:04.655Z,36.47
2022-12-04T14:09:40.462Z,35.53
2022-12-04T14:12:14.185Z,43.47
2022-12-04T14:14:47.973Z,36.97
2022-12-04T14:17:23.420Z,35.33
2022-12-04T14:19:59.893Z,32.83
2022-12-04T14:22:33.886Z,29.53
2022-12-04T14:25:35.849Z,29.50
2022-12-04T14:28:25.720Z,31.53
2022-12-04T14:31:14.009Z,30.37
2022-12-04T14:33:49.067Z,28.23
2022-12-04T14:36:25.001Z,28.53
2022-12-04T14:39:03.387Z,28.90
2022-12-04T14:41:34.971Z,23.13
2022-12-04T14:44:05.791Z,24.93
2022-12-04T14:46:42.656Z,23.30
2022-12-04T14:49:23.787Z,22.13
2022-12-04T14:51:58.198Z,23.17
2022-12-04T14:54:32.331Z,22.23
2022-12-04T14:57:12.232Z,17.77
2022-12-04T14:59:46.847Z,19.07
2022-12-04T15:02:20.263Z,18.87
2022-12-04T15:04:52.313Z,16.50
2022-12-04T15:07:25.681Z,15.10
2022-12-04T15:10:33.135Z,9.90
2022-12-04T15:15:41.574Z,9.50
2022-12-04T15:18:16.717Z,4.07
2022-12-04T15:20:56.542Z,4.93
2022-12-04T15:23:30.470Z,5.30
2022-12-04T15:26:03.720Z,3.90
2022-12-04T15:28:36.628Z,5.40
2022-12-04T15:31:10.172Z,4.70
2022-12-04T15:33:42.614Z,5.07
2022-12-04T15:36:17.955Z,4.93
2022-12-04T15:38:50.390Z,4.03
2022-12-04T15:41:31.192Z,3.17
2022-12-04T15:44:02.547Z,4.10
2022-12-04T15:46:38.670Z,5.00
2022-12-04T15:49:17.419Z,4.83
2022-12-04T15:51:49.279Z,5.23
2022-12-04T15:57:04.530Z,8.53
2022-12-04T15:59:37.330Z,8.30
2022-12-04T16:02:10.662Z,4.07
2022-12-04T16:07:25.261Z,23.47
2022-12-04T16:10:03.258Z,14.50
2022-12-04T16:12:33.618Z,16.37
2022-12-04T16:15:04.368Z,18.07
2022-12-04T16:17:36.856Z,19.70
2022-12-04T16:20:10.045Z,14.77
2022-12-04T16:22:42.653Z,17.53
2022-12-04T16:25:15.017Z,22.43
2022-12-04T16:27:45.677Z,55.87
2022-12-04T16:30:17.776Z,144.00
2022-12-04T16:32:49.230Z,21.17
2022-12-04T16:35:20.405Z,22.40
2022-12-04T16:37:51.401Z,23.20
2022-12-04T16:40:22.376Z,25.10
2022-12-04T16:42:54.036Z,22.33
2022-12-04T16:45:29.554Z,32.83
2022-12-04T16:48:00.182Z,33.00
2022-12-04T16:53:13.525Z,120.33
2022-12-04T16:55:47.386Z,28.87
2022-12-04T16:58:19.854Z,20.97
2022-12-04T17:00:53.484Z,24.83
2022-12-04T17:03:27.323Z,23.60
2022-12-04T17:05:59.082Z,22.03
2022-12-04T17:08:30.411Z,26.00
2022-12-04T17:11:01.109Z,26.77
2022-12-04T17:13:32.299Z,22.40
2022-12-04T17:16:03.596Z,16.77
2022-12-04T17:18:34.509Z,19.97
2022-12-04T17:21:09.470Z,18.83
2022-12-04T17:23:41.027Z,25.17
2022-12-04T17:26:14.991Z,23.90
2022-12-04T17:28:45.706Z,25.40
2022-12-04T17:31:19.937Z,22.70
2022-12-04T17:33:50.763Z,20.60
2022-12-04T17:36:25.273Z,21.80
2022-12-04T17:38:57.789Z,18.33
2022-12-04T17:41:28.926Z,17.50
2022-12-04T17:44:02.016Z,14.17
2022-12-04T17:46:32.636Z,13.43
2022-12-04T17:49:06.982Z,10.67
2022-12-04T17:51:36.472Z,9.90
2022-12-04T17:54:08.664Z,9.40
2022-12-04T17:56:43.320Z,11.17
2022-12-04T17:59:11.955Z,9.30
2022-12-04T18:01:42.681Z,9.27
2022-12-04T18:04:13.347Z,6.63
2022-12-04T18:06:45.563Z,3.83
2022-12-04T18:09:17.793Z,4.77
2022-12-04T18:11:49.722Z,3.67
2022-12-04T18:14:22.549Z,3.97
2022-12-04T18:19:33.975Z,7.80
2022-12-04T18:22:04.599Z,4.83
2022-12-04T18:24:35.871Z,3.23
2022-12-04T18:27:06.607Z,3.00
2022-12-04T18:29:37.703Z,8.43
2022-12-04T18:32:08.854Z,7.97
2022-12-04T18:34:39.802Z,11.97
2022-12-04T18:37:10.481Z,16.57
2022-12-04T18:39:41.051Z,13.43
2022-12-04T18:42:11.716Z,11.00
2022-12-04T18:44:42.342Z,16.37
2022-12-04T18:47:12.929Z,9.40
2022-12-04T18:49:43.694Z,17.13
2022-12-04T18:52:14.394Z,12.60
2022-12-04T18:54:45.478Z,11.30
2022-12-04T18:57:16.202Z,9.57
2022-12-04T18:59:46.817Z,11.80
2022-12-04T19:02:17.537Z,9.57
2022-12-04T19:04:48.276Z,13.47
2022-12-04T19:07:20.096Z,13.43
2022-12-04T19:12:22.947Z,14.37
2022-12-04T19:14:53.632Z,74.70
2022-12-04T19:17:24.328Z,19.40
2022-12-04T19:19:55.474Z,18.63
2022-12-04T19:22:26.504Z,19.50
2022-12-04T19:24:57.091Z,13.57
2022-12-04T19:27:27.758Z,15.00
2022-12-04T19:29:58.571Z,15.87
2022-12-04T19:32:29.612Z,14.83
2022-12-04T19:35:00.294Z,12.47
2022-12-04T19:37:30.928Z,11.10
2022-12-04T19:40:01.794Z,12.60
2022-12-04T19:42:33.472Z,11.60
2022-12-04T19:45:04.267Z,11.17
2022-12-04T19:47:35.096Z,10.23
2022-12-04T19:50:06.585Z,10.10
2022-12-04T19:52:37.238Z,9.53
2022-12-04T19:55:09.976Z,9.90
2022-12-04T19:57:40.530Z,24.97
2022-12-04T20:00:13.614Z,16.33
2022-12-04T20:02:44.401Z,17.80
2022-12-04T20:05:15.172Z,12.27
2022-12-04T20:07:45.818Z,13.43
2022-12-04T20:10:17.062Z,14.60
2022-12-04T20:12:47.708Z,98.60
2022-12-04T20:15:18.586Z,21.17
2022-12-04T20:17:49.313Z,24.63
2022-12-04T20:20:20.407Z,19.93
2022-12-04T20:22:51.070Z,19.57
2022-12-04T20:25:21.926Z,14.90
2022-12-04T20:27:52.516Z,14.60
2022-12-04T20:30:23.192Z,12.67
2022-12-04T20:35:32.402Z,7.53
2022-12-04T20:38:04.143Z,6.63
2022-12-04T20:40:37.009Z,9.63
2022-12-04T20:43:08.092Z,8.70
2022-12-04T20:45:39.191Z,8.20
2022-12-04T20:48:10.368Z,30.63
2022-12-04T20:50:44.165Z,8.60
2022-12-04T20:53:15.324Z,17.57
2022-12-04T20:55:54.942Z,24.63
2022-12-04T20:58:25.912Z,10.90
2022-12-04T21:00:57.117Z,9.63
2022-12-04T21:03:29.068Z,11.57
2022-12-04T21:05:59.834Z,37.73
2022-12-04T21:08:48.798Z,13.93
2022-12-04T21:11:19.954Z,11.00
2022-12-04T21:14:08.472Z,8.67
2022-12-04T21:16:39.504Z,8.13
2022-12-04T21:19:12.706Z,8.30
2022-12-04T21:21:43.899Z,8.30
2022-12-04T21:24:16.806Z,8.53
2022-12-04T21:26:48.175Z,8.67
2022-12-04T21:29:19.902Z,8.87
2022-12-04T21:31:50.553Z,10.97
2022-12-04T21:34:21.429Z,10.97
2022-12-04T21:36:52.059Z,10.83
2022-12-04T21:39:24.116Z,8.67
2022-12-04T21:42:12.667Z,17.83
2022-12-04T21:44:43.355Z,42.07
2022-12-04T21:47:13.851Z,19.70
2022-12-04T21:49:44.559Z,16.53
2022-12-04T21:52:15.166Z,13.77
2022-12-04T21:54:45.685Z,9.43
2022-12-04T21:57:16.292Z,9.87
2022-12-04T21:59:46.838Z,14.43
2022-12-04T22:02:17.915Z,13.43
2022-12-04T22:04:48.937Z,13.60
2022-12-04T22:07:20.296Z,12.43
2022-12-04T22:09:50.835Z,13.97
2022-12-04T22:14:53.811Z,11.23
2022-12-04T22:17:24.506Z,10.33
2022-12-04T22:19:55.328Z,16.80
2022-12-04T22:22:26.215Z,11.23
2022-12-04T22:24:56.808Z,10.83
2022-12-04T22:27:27.367Z,14.40
2022-12-04T22:29:58.403Z,14.50
2022-12-04T22:32:29.012Z,16.07
2022-12-04T22:34:59.655Z,57.87
2022-12-04T22:37:30.336Z,17.17
2022-12-04T22:40:00.886Z,16.30
2022-12-04T22:42:31.500Z,17.63
2022-12-04T22:45:02.071Z,30.90
2022-12-04T22:47:32.839Z,20.53
2022-12-04T22:50:03.365Z,17.17
2022-12-04T22:52:34.434Z,24.77
2022-12-04T22:55:05.748Z,17.87
2022-12-04T22:57:36.730Z,64.77
2022-12-04T23:00:12.916Z,76.57
2022-12-04T23:02:43.609Z,82.10
2022-12-04T23:05:14.346Z,176.23
2022-12-04T23:07:45.101Z,82.47
2022-12-04T23:10:15.732Z,93.50
2022-12-04T23:12:46.291Z,337.13
2022-12-04T23:15:17.378Z,296.27
2022-12-04T23:17:47.960Z,276.90
2022-12-04T23:20:18.904Z,157.30
2022-12-04T23:22:51.216Z,95.83
2022-12-04T23:25:22.126Z,71.17
2022-12-04T23:27:53.700Z,58.70
2022-12-04T23:30:28.386Z,58.67
2022-12-04T23:32:56.455Z,48.63
2022-12-04T23:35:27.159Z,118.70
2022-12-04T23:37:57.679Z,77.00
2022-12-04T23:40:28.459Z,34.50
2022-12-04T23:42:58.962Z,68.87
2022-12-04T23:45:30.234Z,56.77
2022-12-04T23:48:00.922Z,45.77
2022-12-04T23:50:31.486Z,185.60
2022-12-04T23:53:02.008Z,63.73
2022-12-04T23:55:34.698Z,61.43
2022-12-04T23:58:05.466Z,50.57
